Terminal Aerodrome Forecast
Issued by NWS

Home | Current Version | Previous Version | Graphics & Text | Print | Product List | Glossary On
Versions: 1 2 3 4 5 6 7 8 9 10 11 12 13 14 15 16 17
000
FTUS41 KCLE 161700
TAFFDY
TAF
KFDY 161728Z 1618/1718 16015G25KT P6SM VCSH OVC025
      TEMPO 1618/1621 -SHRA BKN015 OVC025
     FM162100 19009KT P6SM OVC015
     FM170200 18004KT P6SM OVC007
     FM171100 30005KT P6SM SKC=

USA.gov is the U.S. government's official web portal to all federal, state and local government web resources and services.